Terminal Aerodrome Forecast
Issued by NWS Wilmington, OH

Current Version | Previous Version | Graphics & Text | Print | Product List | Glossary On
Versions: 1 2 3 4 5 6 7 8 9 10 11 12 13 14 15 16 17 18 19 20 21
045
FTUS41 KILN 231753 AAB
TAFCMH
TAF AMD
KCMH 231753Z 2318/2418 26005KT P6SM VCSH BKN025
     FM232300 26006KT P6SM VCTS BKN040CB
     FM240200 30004KT P6SM SCT080 BKN250
     FM240600 VRB03KT 5SM BR SCT250
     FM241000 VRB03KT 2SM BR SCT250
     FM241300 28005KT P6SM SCT030=

USA.gov is the U.S. government's official web portal to all federal, state and local government web resources and services.